createdAt,value
2017-07-18T00:00:06.678Z,83.9
2017-07-18T00:01:08.444Z,83.9
2017-07-18T00:02:10.162Z,83.9
2017-07-18T00:03:11.873Z,84.2
2017-07-18T00:04:13.526Z,84.0
2017-07-18T00:05:16.357Z,84.3
2017-07-18T00:06:18.076Z,84.1
2017-07-18T00:07:19.852Z,83.9
2017-07-18T00:08:21.572Z,83.9
2017-07-18T00:09:23.288Z,84.1
2017-07-18T00:10:25.007Z,84.7
2017-07-18T00:11:26.673Z,84.6
2017-07-18T00:12:28.395Z,84.7
2017-07-18T00:13:30.141Z,84.4
2017-07-18T00:14:31.860Z,84.4
2017-07-18T00:15:33.635Z,84.7
2017-07-18T00:16:35.410Z,84.6
2017-07-18T00:17:37.235Z,84.7
2017-07-18T00:18:38.942Z,85.0
2017-07-18T00:19:40.739Z,84.6
2017-07-18T00:20:42.469Z,85.0
2017-07-18T00:21:44.149Z,85.0
2017-07-18T00:22:45.862Z,84.8
2017-07-18T00:23:47.540Z,85.1
2017-07-18T00:24:49.264Z,85.5
2017-07-18T00:25:50.997Z,85.1
2017-07-18T00:26:52.713Z,85.0
2017-07-18T00:27:54.499Z,85.2
2017-07-18T00:28:56.235Z,85.2
2017-07-18T00:29:57.997Z,84.8
2017-07-18T00:30:59.647Z,85.1
2017-07-18T00:32:01.388Z,84.9
2017-07-18T00:33:03.104Z,85.3
2017-07-18T00:34:04.883Z,85.8
2017-07-18T00:35:06.613Z,85.0
2017-07-18T00:36:09.337Z,85.6
2017-07-18T00:37:11.050Z,85.6
2017-07-18T00:38:12.725Z,85.4
2017-07-18T00:39:14.445Z,85.7
2017-07-18T00:40:16.181Z,85.7
2017-07-18T00:41:17.918Z,85.9
2017-07-18T00:42:19.681Z,85.6
2017-07-18T00:43:21.394Z,85.5
2017-07-18T00:44:23.182Z,85.6
2017-07-18T00:45:24.829Z,85.9
2017-07-18T00:46:27.596Z,85.9
2017-07-18T00:47:29.317Z,85.9
2017-07-18T00:48:31.088Z,85.9
2017-07-18T00:49:32.802Z,85.9
2017-07-18T00:50:35.542Z,86.2
2017-07-18T00:51:37.264Z,86.1
2017-07-18T00:52:39.034Z,86.3
2017-07-18T00:53:40.761Z,86.1
2017-07-18T00:54:42.493Z,85.9
2017-07-18T00:55:44.226Z,86.3
2017-07-18T00:56:45.981Z,86.3
2017-07-18T00:57:47.636Z,86.6
2017-07-18T00:58:49.384Z,86.3
2017-07-18T00:59:51.034Z,86.2
2017-07-18T01:00:52.760Z,86.5
2017-07-18T01:01:54.486Z,86.5
2017-07-18T01:02:56.212Z,86.6
2017-07-18T01:03:57.933Z,86.1
2017-07-18T01:04:59.633Z,86.3
2017-07-18T01:06:01.338Z,86.6
2017-07-18T01:07:02.991Z,86.7
2017-07-18T01:08:04.700Z,86.5
2017-07-18T01:09:06.349Z,86.6
2017-07-18T01:10:08.101Z,86.6
2017-07-18T01:11:09.821Z,86.6
2017-07-18T01:12:11.547Z,86.5
2017-07-18T01:13:13.286Z,86.4
2017-07-18T01:14:15.014Z,86.9
2017-07-18T01:15:16.736Z,86.7
2017-07-18T01:16:18.384Z,86.8
2017-07-18T01:17:20.100Z,87.0
2017-07-18T01:18:21.755Z,87.0
2017-07-18T01:19:23.519Z,87.1
2017-07-18T01:20:25.227Z,87.1
2017-07-18T01:21:26.946Z,86.8
2017-07-18T01:22:28.666Z,87.0
2017-07-18T01:23:30.386Z,87.0
2017-07-18T01:24:32.107Z,86.8
2017-07-18T01:25:33.757Z,87.4
2017-07-18T01:26:35.474Z,87.3
2017-07-18T01:27:37.118Z,87.6
2017-07-18T01:28:38.830Z,87.5
2017-07-18T01:29:40.497Z,87.2
2017-07-18T01:30:42.215Z,87.3
2017-07-18T01:31:43.956Z,87.3
2017-07-18T01:32:45.708Z,87.6
2017-07-18T01:33:47.437Z,87.5
2017-07-18T01:34:49.124Z,87.6
2017-07-18T01:35:50.943Z,87.4
2017-07-18T01:36:52.651Z,87.5
2017-07-18T01:37:54.435Z,88.1
2017-07-18T01:38:56.142Z,87.6
2017-07-18T01:39:57.884Z,88.4
2017-07-18T01:40:59.648Z,87.9
2017-07-18T01:42:01.434Z,88.1
2017-07-18T01:43:03.141Z,88.6
2017-07-18T01:44:04.928Z,88.6
2017-07-18T01:45:06.646Z,88.2
2017-07-18T01:46:08.424Z,88.4
2017-07-18T01:47:10.071Z,88.1
2017-07-18T01:48:11.815Z,88.4
2017-07-18T01:49:13.551Z,88.5
2017-07-18T01:50:15.298Z,88.6
2017-07-18T01:51:17.021Z,88.1
2017-07-18T01:52:18.732Z,89.1
2017-07-18T01:53:20.460Z,88.2
2017-07-18T01:54:22.117Z,88.6
2017-07-18T01:55:23.838Z,88.6
2017-07-18T01:56:25.574Z,88.7
2017-07-18T01:57:27.292Z,88.9
2017-07-18T01:58:29.033Z,89.6
2017-07-18T01:59:30.805Z,89.3
2017-07-18T02:00:32.593Z,89.5
2017-07-18T02:01:34.233Z,89.2
2017-07-18T02:02:36.063Z,89.3
2017-07-18T02:03:37.783Z,89.1
2017-07-18T02:04:39.568Z,89.2
2017-07-18T02:05:41.289Z,89.2
2017-07-18T02:06:42.994Z,89.2
2017-07-18T02:07:44.720Z,89.4
2017-07-18T02:08:46.557Z,89.4
2017-07-18T02:09:48.311Z,89.2
2017-07-18T02:10:50.068Z,89.4
2017-07-18T02:11:51.715Z,89.5
2017-07-18T02:12:53.554Z,89.6
2017-07-18T02:13:55.281Z,89.6
2017-07-18T02:14:57.049Z,89.5
2017-07-18T02:15:58.775Z,89.6
2017-07-18T02:17:02.515Z,90.0
2017-07-18T02:18:04.181Z,90.0
2017-07-18T02:19:05.979Z,89.6
2017-07-18T02:20:07.629Z,89.8
2017-07-18T02:21:10.406Z,89.6
2017-07-18T02:22:12.127Z,89.6
2017-07-18T02:23:14.912Z,89.6
2017-07-18T02:24:16.565Z,90.0
2017-07-18T02:25:18.293Z,89.8
2017-07-18T02:26:19.940Z,90.4
2017-07-18T02:27:21.690Z,90.0
2017-07-18T02:28:23.405Z,90.2
2017-07-18T02:29:25.189Z,90.2
2017-07-18T02:30:26.904Z,90.3
2017-07-18T02:31:28.668Z,90.0
2017-07-18T02:32:30.379Z,90.1
2017-07-18T02:33:32.166Z,90.3
2017-07-18T02:34:33.895Z,90.3
2017-07-18T02:35:35.676Z,89.8
2017-07-18T02:36:37.411Z,90.3
2017-07-18T02:37:40.186Z,90.0
2017-07-18T02:38:41.852Z,90.1
2017-07-18T02:39:43.591Z,90.3
2017-07-18T02:40:45.311Z,90.3
2017-07-18T02:41:48.125Z,89.8
2017-07-18T02:42:49.846Z,90.3
2017-07-18T02:43:51.531Z,90.2
2017-07-18T02:44:53.245Z,90.1
2017-07-18T02:45:54.920Z,90.2
2017-07-18T02:46:56.633Z,90.0
2017-07-18T02:47:59.417Z,90.0
2017-07-18T02:49:01.143Z,90.5
2017-07-18T02:50:02.897Z,90.5
2017-07-18T02:51:04.591Z,90.5
2017-07-18T02:52:06.395Z,90.8
2017-07-18T02:53:08.118Z,90.8
2017-07-18T02:54:10.911Z,90.8
2017-07-18T02:55:12.631Z,90.7
2017-07-18T02:56:14.347Z,90.5
2017-07-18T02:57:16.077Z,90.7
2017-07-18T02:58:17.906Z,90.4
2017-07-18T02:59:19.627Z,90.4
2017-07-18T03:00:21.429Z,90.5
2017-07-18T03:01:23.163Z,90.7
2017-07-18T03:02:25.002Z,91.2
2017-07-18T03:03:26.728Z,91.1
2017-07-18T03:04:28.489Z,91.1
2017-07-18T03:05:30.206Z,91.0
2017-07-18T03:06:31.936Z,91.0
2017-07-18T03:07:33.661Z,91.1
2017-07-18T03:08:35.467Z,90.6
2017-07-18T03:09:37.188Z,90.7
2017-07-18T03:10:39.007Z,90.7
2017-07-18T03:11:40.716Z,90.9
2017-07-18T03:12:42.479Z,90.6
2017-07-18T03:13:44.142Z,91.3
2017-07-18T03:14:46.061Z,91.0
2017-07-18T03:15:47.778Z,91.3
2017-07-18T03:16:49.497Z,91.0
2017-07-18T03:17:51.221Z,90.7
2017-07-18T03:18:53.046Z,90.8
2017-07-18T03:19:54.759Z,91.1
2017-07-18T03:20:56.554Z,91.2
2017-07-18T03:21:58.262Z,91.1
2017-07-18T03:23:00.060Z,90.9
2017-07-18T03:24:01.780Z,91.0
2017-07-18T03:25:03.548Z,91.1
2017-07-18T03:26:05.261Z,91.0
2017-07-18T03:27:06.983Z,90.7
2017-07-18T03:28:08.707Z,91.0
2017-07-18T03:29:10.548Z,90.7
2017-07-18T03:30:12.273Z,90.9
2017-07-18T03:31:14.049Z,90.9
2017-07-18T03:32:15.751Z,90.8
2017-07-18T03:33:17.518Z,90.8
2017-07-18T03:34:19.235Z,90.7
2017-07-18T03:35:21.006Z,90.8
2017-07-18T03:36:22.730Z,90.9
2017-07-18T03:37:24.503Z,91.5
2017-07-18T03:38:26.234Z,91.3
2017-07-18T03:39:28.000Z,90.7
2017-07-18T03:40:29.743Z,90.9
2017-07-18T03:41:31.508Z,91.5
2017-07-18T03:42:33.238Z,91.5
2017-07-18T03:43:35.024Z,90.8
2017-07-18T03:44:36.680Z,91.5
2017-07-18T03:45:38.491Z,90.9
2017-07-18T03:46:40.221Z,90.8
2017-07-18T03:47:41.994Z,91.6
2017-07-18T03:48:43.704Z,91.5
2017-07-18T03:49:45.417Z,91.3
2017-07-18T03:50:47.140Z,90.9
2017-07-18T03:51:48.810Z,90.9
2017-07-18T03:52:50.536Z,90.9
2017-07-18T03:53:52.257Z,90.9
2017-07-18T03:54:54.045Z,90.7
2017-07-18T03:55:55.858Z,90.7
2017-07-18T03:56:57.512Z,91.1
2017-07-18T03:57:59.255Z,91.1
2017-07-18T03:59:00.910Z,91.1
2017-07-18T04:00:02.638Z,91.0
2017-07-18T04:01:04.359Z,91.0
2017-07-18T04:02:06.172Z,91.1
2017-07-18T04:03:07.889Z,90.8
2017-07-18T04:04:09.646Z,91.0
2017-07-18T04:05:11.377Z,91.1
2017-07-18T04:06:13.142Z,91.0
2017-07-18T04:07:14.849Z,91.1
2017-07-18T04:08:16.633Z,91.1
2017-07-18T04:09:18.371Z,91.0
2017-07-18T04:10:21.113Z,90.7
2017-07-18T04:11:22.794Z,91.0
2017-07-18T04:12:24.595Z,90.7
2017-07-18T04:13:26.319Z,90.8
2017-07-18T04:14:28.221Z,90.8
2017-07-18T04:15:29.934Z,91.0
2017-07-18T04:16:31.630Z,91.1
2017-07-18T04:17:33.360Z,90.4
2017-07-18T04:18:35.193Z,90.6
2017-07-18T04:19:36.946Z,90.4
2017-07-18T04:20:39.719Z,90.7
2017-07-18T04:21:41.371Z,90.6
2017-07-18T04:22:43.207Z,90.5
2017-07-18T04:23:44.963Z,90.9
2017-07-18T04:24:46.702Z,90.5
2017-07-18T04:25:48.431Z,90.7
2017-07-18T04:26:50.127Z,90.7
2017-07-18T04:27:51.850Z,90.6
2017-07-18T04:28:53.589Z,90.8
2017-07-18T04:29:55.322Z,90.6
2017-07-18T04:30:57.091Z,90.7
2017-07-18T04:31:58.762Z,90.3
2017-07-18T04:33:00.576Z,90.0
2017-07-18T04:34:03.141Z,90.2
2017-07-18T04:35:04.923Z,90.0
2017-07-18T04:36:06.636Z,90.2
2017-07-18T04:37:08.609Z,90.4
2017-07-18T04:38:10.271Z,90.4
2017-07-18T04:39:12.943Z,90.2
2017-07-18T04:40:14.650Z,90.0
2017-07-18T04:41:16.400Z,90.0
2017-07-18T04:42:18.131Z,90.0
2017-07-18T04:43:19.909Z,90.1
2017-07-18T04:44:24.389Z,90.7
2017-07-18T04:45:26.104Z,89.9
2017-07-18T04:46:27.918Z,89.6
2017-07-18T04:47:29.626Z,89.8
2017-07-18T04:48:31.342Z,89.9
2017-07-18T04:49:33.051Z,89.6
2017-07-18T04:50:34.809Z,89.5
2017-07-18T04:51:36.546Z,89.8
2017-07-18T04:52:38.299Z,89.4
2017-07-18T04:53:40.013Z,89.2
2017-07-18T04:54:41.808Z,88.9
2017-07-18T04:55:43.628Z,89.2
2017-07-18T04:56:45.381Z,89.0
2017-07-18T04:57:47.099Z,88.6
2017-07-18T04:58:48.839Z,88.3
2017-07-18T04:59:50.577Z,88.1
2017-07-18T05:00:52.231Z,88.4
2017-07-18T05:01:53.964Z,88.5
2017-07-18T05:02:55.681Z,88.5
2017-07-18T05:03:57.406Z,88.7
2017-07-18T05:04:59.134Z,88.6
2017-07-18T05:06:00.870Z,87.8
2017-07-18T05:07:02.639Z,87.9
2017-07-18T05:08:04.292Z,88.3
2017-07-18T05:09:06.033Z,88.3
2017-07-18T05:10:07.756Z,87.9
2017-07-18T05:11:09.482Z,87.9
2017-07-18T05:12:11.216Z,87.4
2017-07-18T05:13:12.977Z,87.6
2017-07-18T05:14:14.700Z,87.7
2017-07-18T05:15:16.371Z,87.7
2017-07-18T05:16:18.189Z,87.2
2017-07-18T05:17:19.934Z,87.3
2017-07-18T05:18:21.688Z,87.5
2017-07-18T05:19:23.405Z,87.0
2017-07-18T05:20:25.108Z,87.1
2017-07-18T05:21:26.851Z,86.9
2017-07-18T05:22:28.677Z,87.1
2017-07-18T05:23:30.400Z,86.9
2017-07-18T05:24:32.175Z,86.7
2017-07-18T05:25:33.857Z,86.6
2017-07-18T05:26:35.654Z,86.7
2017-07-18T05:27:37.374Z,86.6
2017-07-18T05:28:39.158Z,86.5
2017-07-18T05:29:40.877Z,86.6
2017-07-18T05:30:42.648Z,86.3
2017-07-18T05:31:44.369Z,86.5
2017-07-18T05:32:46.139Z,86.1
2017-07-18T05:33:47.858Z,86.1
2017-07-18T05:34:49.630Z,86.4
2017-07-18T05:35:51.349Z,86.5
2017-07-18T05:36:53.132Z,85.9
2017-07-18T05:37:54.786Z,85.4
2017-07-18T05:38:56.526Z,85.6
2017-07-18T05:39:58.239Z,85.3
2017-07-18T05:41:00.028Z,85.4
2017-07-18T05:42:01.733Z,85.0
2017-07-18T05:43:03.448Z,84.7
2017-07-18T05:44:05.170Z,84.5
2017-07-18T05:45:06.843Z,84.1
2017-07-18T05:46:08.560Z,84.0
2017-07-18T05:47:10.308Z,83.5
2017-07-18T05:48:12.026Z,83.4
2017-07-18T05:49:13.792Z,82.7
2017-07-18T05:50:15.503Z,82.5
2017-07-18T05:51:17.289Z,82.3
2017-07-18T05:52:19.016Z,81.4
2017-07-18T05:53:20.786Z,81.2
2017-07-18T05:54:22.500Z,80.9
2017-07-18T05:55:24.213Z,80.5
2017-07-18T05:56:25.866Z,80.6
2017-07-18T05:57:27.620Z,80.0
2017-07-18T05:58:29.259Z,80.0
2017-07-18T05:59:31.005Z,80.0
2017-07-18T06:00:32.734Z,80.1
2017-07-18T06:01:34.637Z,79.4
2017-07-18T06:02:36.357Z,79.2
2017-07-18T06:03:38.163Z,79.2
2017-07-18T06:04:39.900Z,79.0
2017-07-18T06:05:41.671Z,79.5
2017-07-18T06:06:43.409Z,79.3
2017-07-18T06:07:45.182Z,79.4
2017-07-18T06:08:46.941Z,78.6
2017-07-18T06:09:48.759Z,78.6
2017-07-18T06:10:50.557Z,78.6
2017-07-18T06:11:52.337Z,78.6
2017-07-18T06:12:54.007Z,77.9
2017-07-18T06:13:55.839Z,78.0
2017-07-18T06:14:57.581Z,78.3
2017-07-18T06:15:59.393Z,78.2
2017-07-18T06:17:01.139Z,78.3
2017-07-18T06:18:02.850Z,77.9
2017-07-18T06:19:04.630Z,78.0
2017-07-18T06:20:06.343Z,77.8
2017-07-18T06:21:08.065Z,77.8
2017-07-18T06:22:10.486Z,77.1
2017-07-18T06:23:12.249Z,77.2
2017-07-18T06:24:14.018Z,76.7
2017-07-18T06:25:15.776Z,76.5
2017-07-18T06:26:17.501Z,76.2
2017-07-18T06:27:19.182Z,76.2
2017-07-18T06:28:20.887Z,76.6
2017-07-18T06:29:22.659Z,76.2
2017-07-18T06:30:24.386Z,76.4
2017-07-18T06:31:26.146Z,76.4
2017-07-18T06:32:27.838Z,76.0
2017-07-18T06:33:29.644Z,76.4
2017-07-18T06:34:31.295Z,76.2
2017-07-18T06:35:34.060Z,75.9
2017-07-18T06:36:35.792Z,76.5
2017-07-18T06:37:38.612Z,76.1
2017-07-18T06:38:40.325Z,75.8
2017-07-18T06:39:42.003Z,75.8
2017-07-18T06:40:43.730Z,75.7
2017-07-18T06:41:45.561Z,75.7
2017-07-18T06:42:47.281Z,75.9
2017-07-18T06:43:49.005Z,75.7
2017-07-18T06:44:50.801Z,76.1
2017-07-18T06:45:52.564Z,76.0
2017-07-18T06:46:54.293Z,76.4
2017-07-18T06:47:56.006Z,76.3
2017-07-18T06:48:57.733Z,76.9
2017-07-18T06:49:59.470Z,76.8
2017-07-18T06:51:01.225Z,76.2
2017-07-18T06:52:02.871Z,76.1
2017-07-18T06:53:04.518Z,76.4
2017-07-18T06:54:06.383Z,76.3
2017-07-18T06:55:08.036Z,76.5
2017-07-18T06:56:09.711Z,76.3
2017-07-18T06:57:11.373Z,76.0
2017-07-18T06:58:13.034Z,75.9
2017-07-18T06:59:14.744Z,75.8
2017-07-18T07:00:16.386Z,75.9
2017-07-18T07:01:18.187Z,75.9
2017-07-18T07:02:19.847Z,76.0
2017-07-18T07:03:21.501Z,75.9
2017-07-18T07:04:23.162Z,75.7
2017-07-18T07:05:24.859Z,75.7
2017-07-18T07:06:26.511Z,76.0
2017-07-18T07:07:28.242Z,75.7
2017-07-18T07:08:29.902Z,75.8
2017-07-18T07:09:31.596Z,75.9
2017-07-18T07:10:33.284Z,75.5
2017-07-18T07:11:34.983Z,75.8
2017-07-18T07:12:36.679Z,75.7
2017-07-18T07:13:38.359Z,75.8
2017-07-18T07:14:40.175Z,75.3
2017-07-18T07:15:41.886Z,75.3
2017-07-18T07:16:43.565Z,75.4
2017-07-18T07:17:45.349Z,74.7
2017-07-18T07:18:47.116Z,74.8
2017-07-18T07:20:03.986Z,75.1
2017-07-18T07:21:06.827Z,74.6
2017-07-18T07:22:08.469Z,74.2
2017-07-18T07:23:10.239Z,74.1
2017-07-18T07:24:11.894Z,74.3
2017-07-18T07:25:15.682Z,73.9
2017-07-18T07:26:17.332Z,73.6
2017-07-18T07:27:21.117Z,73.6
2017-07-18T07:28:22.771Z,73.7
2017-07-18T07:29:24.518Z,73.8
2017-07-18T07:30:26.174Z,73.9
2017-07-18T07:31:27.829Z,73.5
2017-07-18T07:32:29.483Z,73.4
2017-07-18T07:33:31.136Z,73.2
2017-07-18T07:34:32.796Z,72.9
2017-07-18T07:35:34.442Z,72.9
2017-07-18T07:36:36.112Z,72.6
2017-07-18T07:37:37.764Z,72.4
2017-07-18T07:38:39.446Z,72.2
2017-07-18T07:39:41.095Z,72.2
2017-07-18T07:40:42.751Z,71.6
2017-07-18T07:41:44.423Z,71.2
2017-07-18T07:42:46.083Z,71.3
2017-07-18T07:43:47.731Z,71.6
2017-07-18T07:44:49.432Z,71.2
2017-07-18T07:45:51.231Z,71.3
2017-07-18T07:46:52.907Z,71.5
2017-07-18T07:47:54.561Z,71.1
2017-07-18T07:48:56.212Z,71.3
2017-07-18T07:49:57.927Z,71.1
2017-07-18T07:50:59.603Z,71.4
2017-07-18T07:52:01.259Z,71.6
2017-07-18T07:53:02.919Z,71.6
2017-07-18T07:54:06.340Z,71.5
2017-07-18T07:55:08.067Z,71.5
2017-07-18T07:56:09.757Z,71.6
2017-07-18T07:57:11.406Z,70.7
2017-07-18T07:58:13.070Z,70.7
2017-07-18T07:59:14.724Z,70.8
2017-07-18T08:00:16.385Z,70.7
2017-07-18T08:01:18.037Z,70.6
2017-07-18T08:02:19.691Z,70.6
2017-07-18T08:03:21.344Z,70.9
2017-07-18T08:04:22.996Z,70.6
2017-07-18T08:05:24.670Z,70.6
2017-07-18T08:06:26.328Z,70.8
2017-07-18T08:07:27.985Z,70.2
2017-07-18T08:08:29.655Z,70.5
2017-07-18T08:09:31.337Z,70.3
2017-07-18T08:10:33.076Z,70.1
2017-07-18T08:11:34.767Z,70.5
2017-07-18T08:12:37.468Z,70.9
2017-07-18T08:13:39.121Z,71.1
2017-07-18T08:14:41.886Z,71.0
2017-07-18T08:15:43.543Z,70.4
2017-07-18T08:16:45.314Z,70.4
2017-07-18T08:17:46.988Z,70.4
2017-07-18T08:18:48.766Z,70.2
2017-07-18T08:19:50.425Z,70.1
2017-07-18T08:20:52.162Z,70.0
2017-07-18T08:21:53.823Z,70.0
2017-07-18T08:22:55.558Z,69.8
2017-07-18T08:23:57.331Z,69.8
2017-07-18T08:24:59.052Z,70.0
2017-07-18T08:26:00.694Z,70.1
2017-07-18T08:27:02.355Z,70.0
2017-07-18T08:28:04.023Z,69.2
2017-07-18T08:29:05.730Z,69.3
2017-07-18T08:30:07.379Z,70.0
2017-07-18T08:31:10.146Z,70.0
2017-07-18T08:32:11.808Z,69.8
2017-07-18T08:33:13.538Z,69.4
2017-07-18T08:34:15.186Z,69.3
2017-07-18T08:35:16.980Z,69.5
2017-07-18T08:36:18.928Z,69.3
2017-07-18T08:37:20.721Z,69.0
2017-07-18T08:38:22.379Z,68.4
2017-07-18T08:39:25.165Z,68.7
2017-07-18T08:40:26.828Z,69.1
2017-07-18T08:41:28.566Z,69.4
2017-07-18T08:42:30.228Z,69.4
2017-07-18T08:43:31.938Z,69.9
2017-07-18T08:44:33.593Z,70.0
2017-07-18T08:45:35.331Z,70.1
2017-07-18T08:46:36.990Z,70.0
2017-07-18T08:47:38.726Z,70.3
2017-07-18T08:48:40.392Z,70.2
2017-07-18T08:49:42.135Z,70.3
2017-07-18T08:50:43.834Z,70.4
2017-07-18T08:51:45.665Z,70.3
2017-07-18T08:52:47.596Z,70.3
2017-07-18T08:53:50.339Z,70.3
2017-07-18T08:54:51.994Z,70.1
2017-07-18T08:55:53.767Z,70.1
2017-07-18T08:56:55.450Z,70.2
2017-07-18T08:57:57.225Z,69.3
2017-07-18T08:58:58.933Z,69.5
2017-07-18T09:00:00.728Z,69.4
2017-07-18T09:01:02.392Z,69.4
2017-07-18T09:02:05.161Z,69.6
2017-07-18T09:03:06.812Z,69.4
2017-07-18T09:04:08.557Z,69.5
2017-07-18T09:05:10.265Z,69.4
2017-07-18T09:06:14.104Z,69.2
2017-07-18T09:07:15.753Z,68.7
2017-07-18T09:08:17.501Z,68.8
2017-07-18T09:09:19.161Z,68.7
2017-07-18T09:10:20.962Z,68.0
2017-07-18T09:11:22.619Z,67.8
2017-07-18T09:12:25.379Z,67.6
2017-07-18T09:13:27.037Z,67.7
2017-07-18T09:14:28.784Z,67.6
2017-07-18T09:15:30.440Z,67.5
2017-07-18T09:16:32.169Z,67.6
2017-07-18T09:17:33.901Z,67.4
2017-07-18T09:18:36.682Z,67.1
2017-07-18T09:19:38.336Z,66.7
2017-07-18T09:20:39.993Z,65.9
2017-07-18T09:21:41.764Z,66.3
2017-07-18T09:22:43.430Z,65.9
2017-07-18T09:23:45.222Z,65.7
2017-07-18T09:24:46.971Z,65.4
2017-07-18T09:35:59.380Z,64.8
2017-07-18T09:37:01.026Z,64.9
2017-07-18T09:38:02.797Z,64.6
2017-07-18T09:39:04.468Z,64.2
2017-07-18T09:40:06.179Z,65.1
2017-07-18T09:41:07.839Z,64.5
2017-07-18T09:42:09.564Z,63.8
2017-07-18T09:43:11.222Z,63.7
2017-07-18T09:44:13.048Z,62.4
2017-07-18T09:45:14.706Z,61.8
2017-07-18T09:46:16.546Z,61.2
2017-07-18T09:47:18.197Z,61.0
2017-07-18T09:48:20.039Z,61.1
2017-07-18T09:49:21.690Z,61.5
2017-07-18T09:50:23.532Z,61.2
2017-07-18T09:51:25.191Z,61.5
2017-07-18T09:52:27.027Z,61.6
2017-07-18T09:53:28.680Z,61.6
2017-07-18T09:54:30.525Z,62.8
2017-07-18T09:55:32.174Z,66.0
2017-07-18T09:56:34.018Z,65.9
2017-07-18T09:57:35.679Z,63.7
2017-07-18T09:58:37.514Z,61.8
2017-07-18T09:59:39.167Z,61.4
2017-07-18T10:00:41.009Z,61.2
2017-07-18T10:01:42.663Z,60.5
2017-07-18T10:02:44.504Z,60.3
2017-07-18T10:03:46.156Z,61.0
2017-07-18T10:04:48.009Z,62.3
2017-07-18T10:05:49.680Z,65.2
2017-07-18T10:06:51.493Z,67.8
2017-07-18T10:07:53.145Z,67.2
2017-07-18T10:08:54.998Z,67.6
2017-07-18T10:09:56.655Z,67.4
2017-07-18T10:10:58.483Z,66.9
2017-07-18T10:12:00.139Z,67.7
2017-07-18T10:13:01.798Z,68.4
2017-07-18T10:14:03.450Z,66.5
2017-07-18T10:15:05.106Z,65.3
2017-07-18T10:16:06.815Z,63.8
2017-07-18T10:17:08.489Z,66.7
2017-07-18T10:18:10.149Z,65.8
2017-07-18T10:19:11.803Z,65.8
2017-07-18T10:20:13.460Z,64.6
2017-07-18T10:21:15.304Z,65.7
2017-07-18T10:22:16.937Z,67.2
2017-07-18T10:23:18.589Z,65.9
2017-07-18T10:24:20.281Z,64.6
2017-07-18T10:25:21.941Z,64.9
2017-07-18T10:26:23.687Z,66.0
2017-07-18T10:27:25.334Z,66.6
2017-07-18T10:28:27.064Z,68.0
2017-07-18T10:29:28.716Z,68.3
2017-07-18T10:30:30.486Z,68.5
2017-07-18T10:31:32.144Z,68.2
2017-07-18T10:32:33.853Z,67.1
2017-07-18T10:33:35.509Z,64.5
2017-07-18T10:34:37.249Z,64.4
2017-07-18T10:35:38.900Z,64.1
2017-07-18T10:36:40.550Z,63.0
2017-07-18T10:37:42.207Z,62.4
2017-07-18T10:38:43.869Z,62.0
2017-07-18T10:39:45.532Z,60.7
2017-07-18T10:40:47.203Z,60.2
2017-07-18T10:41:48.863Z,61.8
2017-07-18T10:42:50.528Z,62.6
2017-07-18T10:43:52.178Z,62.2
2017-07-18T10:44:53.898Z,60.9
2017-07-18T10:45:55.556Z,60.1
2017-07-18T10:46:57.290Z,60.6
2017-07-18T10:47:58.945Z,60.5
2017-07-18T10:49:00.675Z,60.4
2017-07-18T10:50:02.332Z,62.7
2017-07-18T10:51:04.075Z,62.8
2017-07-18T10:52:05.741Z,62.8
2017-07-18T10:53:07.784Z,61.8
2017-07-18T10:54:09.437Z,60.6
2017-07-18T10:55:11.173Z,60.4
2017-07-18T10:56:12.824Z,60.7
2017-07-18T10:57:14.561Z,60.8
2017-07-18T10:58:16.238Z,60.4
2017-07-18T10:59:17.957Z,59.6
2017-07-18T11:00:19.626Z,58.9
2017-07-18T11:01:21.391Z,58.3
2017-07-18T11:02:23.043Z,58.3
2017-07-18T11:03:24.748Z,58.0
2017-07-18T11:04:26.400Z,57.8
2017-07-18T11:05:28.139Z,57.5
2017-07-18T11:06:29.796Z,57.5
2017-07-18T11:07:31.536Z,58.2
2017-07-18T11:08:33.184Z,57.5
2017-07-18T11:09:34.916Z,57.2
2017-07-18T11:10:36.569Z,59.7
2017-07-18T11:11:38.311Z,61.5
2017-07-18T11:12:39.973Z,62.3
2017-07-18T11:13:41.701Z,61.9
2017-07-18T11:14:43.366Z,62.4
2017-07-18T11:15:45.096Z,61.5
2017-07-18T11:16:46.769Z,60.9
2017-07-18T11:17:48.485Z,59.6
2017-07-18T11:18:50.149Z,58.7
2017-07-18T11:19:51.890Z,58.7
2017-07-18T11:20:53.548Z,58.4
2017-07-18T11:21:55.275Z,57.8
2017-07-18T11:22:56.933Z,57.5
2017-07-18T11:23:58.668Z,57.5
2017-07-18T11:25:00.319Z,58.0
2017-07-18T11:26:02.077Z,57.4
2017-07-18T11:27:03.732Z,59.3
2017-07-18T11:28:05.451Z,61.1
2017-07-18T11:29:07.108Z,61.9
2017-07-18T11:30:08.846Z,63.0
2017-07-18T11:31:10.504Z,61.2
2017-07-18T11:32:12.236Z,60.3
2017-07-18T11:33:13.887Z,60.6
2017-07-18T11:34:15.633Z,61.6
2017-07-18T11:35:17.296Z,62.6
2017-07-18T11:36:19.023Z,61.5
2017-07-18T11:37:20.679Z,60.0
2017-07-18T11:38:28.048Z,58.0
2017-07-18T11:39:29.704Z,57.0
2017-07-18T11:40:31.452Z,57.3
2017-07-18T11:41:33.128Z,58.4
2017-07-18T11:42:34.839Z,57.9
2017-07-18T11:43:36.492Z,57.4
2017-07-18T11:44:38.226Z,56.6
2017-07-18T11:45:39.888Z,55.7
2017-07-18T11:46:41.618Z,56.0
2017-07-18T11:47:43.272Z,55.9
2017-07-18T11:48:45.031Z,55.5
2017-07-18T11:49:46.683Z,57.4
2017-07-18T11:50:48.404Z,56.2
2017-07-18T11:51:50.066Z,56.2
2017-07-18T11:52:51.799Z,55.1
2017-07-18T11:53:53.482Z,54.9
2017-07-18T11:54:55.188Z,54.9
2017-07-18T11:55:56.845Z,55.3
2017-07-18T11:56:58.584Z,55.1
2017-07-18T11:58:00.258Z,54.6
2017-07-18T11:59:02.012Z,54.2
2017-07-18T12:00:03.670Z,54.2
2017-07-18T12:01:05.520Z,55.0
2017-07-18T12:02:07.179Z,54.9
2017-07-18T12:03:09.002Z,55.4
2017-07-18T12:04:10.658Z,54.5
2017-07-18T12:05:12.499Z,56.8
2017-07-18T12:06:14.169Z,56.8
2017-07-18T12:07:15.991Z,58.1
2017-07-18T12:08:17.648Z,62.1
2017-07-18T12:09:19.508Z,63.0
2017-07-18T12:10:21.167Z,61.7
2017-07-18T12:11:22.830Z,61.3
2017-07-18T12:12:24.559Z,59.7
2017-07-18T12:13:26.269Z,59.5
2017-07-18T12:14:27.946Z,59.4
2017-07-18T12:15:29.662Z,58.3
2017-07-18T12:16:31.407Z,60.4
2017-07-18T12:17:33.121Z,59.7
2017-07-18T12:18:34.874Z,58.4
2017-07-18T12:19:36.597Z,55.8
2017-07-18T12:20:38.354Z,54.6
2017-07-18T12:21:40.055Z,53.4
2017-07-18T12:22:41.855Z,54.6
2017-07-18T12:23:43.568Z,56.1
2017-07-18T12:24:45.344Z,55.7
2017-07-18T12:25:47.069Z,56.2
2017-07-18T12:26:48.779Z,58.8
2017-07-18T12:27:50.524Z,59.9
2017-07-18T12:28:52.183Z,60.7
2017-07-18T12:29:53.909Z,61.6
2017-07-18T12:30:55.728Z,61.8
2017-07-18T12:31:57.465Z,60.9
2017-07-18T12:32:59.233Z,61.5
2017-07-18T12:34:00.890Z,61.5
2017-07-18T12:35:02.725Z,60.7
2017-07-18T12:36:04.455Z,58.3
2017-07-18T12:37:06.229Z,56.1
2017-07-18T12:38:07.946Z,54.2
2017-07-18T12:39:09.707Z,53.9
2017-07-18T12:40:11.489Z,54.5
2017-07-18T12:41:13.302Z,56.1
2017-07-18T12:42:15.041Z,57.1
2017-07-18T12:43:16.801Z,58.4
2017-07-18T12:44:18.468Z,58.3
2017-07-18T12:45:20.309Z,58.9
2017-07-18T12:46:22.032Z,57.9
2017-07-18T12:47:23.806Z,58.9
2017-07-18T12:48:25.536Z,58.8
2017-07-18T12:49:27.227Z,57.9
2017-07-18T12:50:28.947Z,57.0
2017-07-18T12:51:30.651Z,55.4
2017-07-18T12:52:32.378Z,54.5
2017-07-18T12:53:34.170Z,54.7
2017-07-18T12:54:35.901Z,54.3
2017-07-18T12:55:37.664Z,55.8
2017-07-18T12:56:39.376Z,55.4
2017-07-18T12:57:41.173Z,55.2
2017-07-18T12:58:42.907Z,55.0
2017-07-18T12:59:44.676Z,56.1
2017-07-18T13:00:46.404Z,57.7
2017-07-18T13:01:48.149Z,56.1
2017-07-18T13:02:49.943Z,54.7
2017-07-18T13:03:51.660Z,55.1
2017-07-18T13:04:53.418Z,54.6
2017-07-18T13:05:55.250Z,53.5
2017-07-18T13:06:56.916Z,54.0
2017-07-18T13:07:58.648Z,55.4
2017-07-18T13:09:00.297Z,56.8
2017-07-18T13:10:02.141Z,57.9
2017-07-18T13:11:03.872Z,58.3
2017-07-18T13:12:05.660Z,56.6
2017-07-18T13:13:07.393Z,55.6
2017-07-18T13:14:09.269Z,55.1
2017-07-18T13:15:10.987Z,53.9
2017-07-18T13:16:12.799Z,52.6
2017-07-18T13:17:14.477Z,52.8
2017-07-18T13:18:16.317Z,54.4
2017-07-18T13:19:18.104Z,55.5
2017-07-18T13:20:19.941Z,56.8
2017-07-18T13:21:21.709Z,56.0
2017-07-18T13:22:23.484Z,56.1
2017-07-18T13:23:25.224Z,55.2
2017-07-18T13:24:26.987Z,54.3
2017-07-18T13:25:28.698Z,54.0
2017-07-18T13:26:30.480Z,53.4
2017-07-18T13:27:32.141Z,53.3
2017-07-18T13:28:33.998Z,53.1
2017-07-18T13:29:35.729Z,53.2
2017-07-18T13:30:37.474Z,53.8
2017-07-18T13:31:39.220Z,55.5
2017-07-18T13:32:40.902Z,56.9
2017-07-18T13:33:42.630Z,57.7
2017-07-18T13:34:44.455Z,55.4
2017-07-18T13:35:46.182Z,55.1
2017-07-18T13:36:47.917Z,54.6
2017-07-18T13:37:49.597Z,54.4
2017-07-18T13:38:51.421Z,53.3
2017-07-18T13:39:53.141Z,51.9
2017-07-18T13:40:54.928Z,50.8
2017-07-18T13:41:56.653Z,50.7
2017-07-18T13:42:58.364Z,50.7
2017-07-18T13:44:00.091Z,50.7
2017-07-18T13:45:01.999Z,51.4
2017-07-18T13:46:03.743Z,51.3
2017-07-18T13:47:05.503Z,52.1
2017-07-18T13:48:07.166Z,53.0
2017-07-18T13:49:08.888Z,53.9
2017-07-18T13:50:10.608Z,55.1
2017-07-18T13:51:12.411Z,55.5
2017-07-18T13:52:14.176Z,54.5